sensor_id;sensor_type;location;lat;lon;timestamp;P1;durP1;ratioP1;P2;durP2;ratioP2
33094;SDS011;19459;53.044;8.910;2023-06-22T00:01:27;14.70;;;7.82;;
33094;SDS011;19459;53.044;8.910;2023-06-22T00:03:53;17.92;;;7.25;;
33094;SDS011;19459;53.044;8.910;2023-06-22T00:06:19;9.40;;;7.40;;
33094;SDS011;19459;53.044;8.910;2023-06-22T00:08:45;8.93;;;7.00;;
33094;SDS011;19459;53.044;8.910;2023-06-22T00:11:11;8.63;;;7.15;;
33094;SDS011;19459;53.044;8.910;2023-06-22T00:13:37;8.45;;;7.20;;
33094;SDS011;19459;53.044;8.910;2023-06-22T00:16:04;10.60;;;7.30;;
33094;SDS011;19459;53.044;8.910;2023-06-22T00:18:30;10.45;;;8.35;;
33094;SDS011;19459;53.044;8.910;2023-06-22T00:20:56;15.65;;;8.00;;
33094;SDS011;19459;53.044;8.910;2023-06-22T00:23:23;9.90;;;7.28;;
33094;SDS011;19459;53.044;8.910;2023-06-22T00:25:49;12.95;;;7.95;;
33094;SDS011;19459;53.044;8.910;2023-06-22T00:28:15;9.90;;;7.53;;
33094;SDS011;19459;53.044;8.910;2023-06-22T00:30:41;11.95;;;8.93;;
33094;SDS011;19459;53.044;8.910;2023-06-22T00:33:07;9.52;;;7.75;;
33094;SDS011;19459;53.044;8.910;2023-06-22T00:35:33;11.10;;;8.75;;
33094;SDS011;19459;53.044;8.910;2023-06-22T00:38:00;11.32;;;8.57;;
33094;SDS011;19459;53.044;8.910;2023-06-22T00:40:32;11.00;;;8.43;;
33094;SDS011;19459;53.044;8.910;2023-06-22T00:42:59;12.48;;;8.05;;
33094;SDS011;19459;53.044;8.910;2023-06-22T00:45:25;10.38;;;8.40;;
33094;SDS011;19459;53.044;8.910;2023-06-22T00:47:56;11.32;;;8.32;;
33094;SDS011;19459;53.044;8.910;2023-06-22T00:50:24;13.57;;;8.95;;
33094;SDS011;19459;53.044;8.910;2023-06-22T00:52:55;11.82;;;9.13;;
33094;SDS011;19459;53.044;8.910;2023-06-22T00:55:23;9.93;;;8.73;;
33094;SDS011;19459;53.044;8.910;2023-06-22T00:57:51;14.63;;;9.63;;
33094;SDS011;19459;53.044;8.910;2023-06-22T01:00:20;12.70;;;10.07;;
33094;SDS011;19459;53.044;8.910;2023-06-22T01:02:49;12.50;;;9.68;;
33094;SDS011;19459;53.044;8.910;2023-06-22T01:05:19;12.95;;;10.40;;
33094;SDS011;19459;53.044;8.910;2023-06-22T01:10:36;12.25;;;8.80;;
33094;SDS011;19459;53.044;8.910;2023-06-22T01:16:18;10.68;;;8.93;;
33094;SDS011;19459;53.044;8.910;2023-06-22T01:18:47;16.70;;;11.05;;
33094;SDS011;19459;53.044;8.910;2023-06-22T01:21:17;12.98;;;8.93;;
33094;SDS011;19459;53.044;8.910;2023-06-22T01:26:39;16.50;;;10.00;;
33094;SDS011;19459;53.044;8.910;2023-06-22T01:29:19;15.73;;;11.05;;
33094;SDS011;19459;53.044;8.910;2023-06-22T01:31:46;15.25;;;12.05;;
33094;SDS011;19459;53.044;8.910;2023-06-22T01:34:15;13.68;;;11.50;;
33094;SDS011;19459;53.044;8.910;2023-06-22T01:36:42;12.65;;;11.00;;
33094;SDS011;19459;53.044;8.910;2023-06-22T01:39:09;14.80;;;11.52;;
33094;SDS011;19459;53.044;8.910;2023-06-22T01:41:37;12.70;;;10.65;;
33094;SDS011;19459;53.044;8.910;2023-06-22T01:44:04;14.43;;;11.38;;
33094;SDS011;19459;53.044;8.910;2023-06-22T01:46:33;17.13;;;12.60;;
33094;SDS011;19459;53.044;8.910;2023-06-22T01:49:01;15.35;;;11.57;;
33094;SDS011;19459;53.044;8.910;2023-06-22T01:51:29;19.45;;;13.13;;
33094;SDS011;19459;53.044;8.910;2023-06-22T01:53:55;16.67;;;12.93;;
33094;SDS011;19459;53.044;8.910;2023-06-22T01:56:21;13.73;;;12.23;;
33094;SDS011;19459;53.044;8.910;2023-06-22T01:58:52;13.98;;;12.23;;
33094;SDS011;19459;53.044;8.910;2023-06-22T02:02:06;15.15;;;12.27;;
33094;SDS011;19459;53.044;8.910;2023-06-22T02:04:36;16.83;;;13.07;;
33094;SDS011;19459;53.044;8.910;2023-06-22T02:07:12;12.30;;;10.95;;
33094;SDS011;19459;53.044;8.910;2023-06-22T02:09:42;15.13;;;12.73;;
33094;SDS011;19459;53.044;8.910;2023-06-22T02:12:11;17.00;;;13.15;;
33094;SDS011;19459;53.044;8.910;2023-06-22T02:14:42;17.23;;;12.20;;
33094;SDS011;19459;53.044;8.910;2023-06-22T02:17:10;16.15;;;12.25;;
33094;SDS011;19459;53.044;8.910;2023-06-22T02:19:36;17.88;;;13.18;;
33094;SDS011;19459;53.044;8.910;2023-06-22T02:22:03;15.68;;;12.63;;
33094;SDS011;19459;53.044;8.910;2023-06-22T02:24:29;17.75;;;13.50;;
33094;SDS011;19459;53.044;8.910;2023-06-22T02:27:00;16.98;;;13.10;;
33094;SDS011;19459;53.044;8.910;2023-06-22T02:29:28;18.77;;;13.48;;
33094;SDS011;19459;53.044;8.910;2023-06-22T02:31:54;18.35;;;13.43;;
33094;SDS011;19459;53.044;8.910;2023-06-22T02:34:23;18.38;;;14.23;;
33094;SDS011;19459;53.044;8.910;2023-06-22T02:36:50;19.25;;;13.45;;
33094;SDS011;19459;53.044;8.910;2023-06-22T02:39:25;18.52;;;13.63;;
33094;SDS011;19459;53.044;8.910;2023-06-22T02:41:52;26.80;;;14.60;;
33094;SDS011;19459;53.044;8.910;2023-06-22T02:44:18;19.35;;;14.50;;
33094;SDS011;19459;53.044;8.910;2023-06-22T02:46:45;19.08;;;14.82;;
33094;SDS011;19459;53.044;8.910;2023-06-22T02:49:12;22.08;;;15.85;;
33094;SDS011;19459;53.044;8.910;2023-06-22T02:51:39;18.73;;;15.05;;
33094;SDS011;19459;53.044;8.910;2023-06-22T02:54:09;20.35;;;16.55;;
33094;SDS011;19459;53.044;8.910;2023-06-22T02:56:35;27.08;;;17.00;;
33094;SDS011;19459;53.044;8.910;2023-06-22T02:59:01;19.67;;;16.52;;
33094;SDS011;19459;53.044;8.910;2023-06-22T03:01:28;23.45;;;15.77;;
33094;SDS011;19459;53.044;8.910;2023-06-22T03:03:55;21.95;;;16.02;;
33094;SDS011;19459;53.044;8.910;2023-06-22T03:06:24;19.42;;;15.73;;
33094;SDS011;19459;53.044;8.910;2023-06-22T03:08:54;22.52;;;16.48;;
33094;SDS011;19459;53.044;8.910;2023-06-22T03:11:29;23.58;;;17.42;;
33094;SDS011;19459;53.044;8.910;2023-06-22T03:13:56;23.92;;;17.45;;
33094;SDS011;19459;53.044;8.910;2023-06-22T03:16:22;22.45;;;17.60;;
33094;SDS011;19459;53.044;8.910;2023-06-22T03:18:47;25.52;;;18.42;;
33094;SDS011;19459;53.044;8.910;2023-06-22T03:21:13;22.58;;;17.55;;
33094;SDS011;19459;53.044;8.910;2023-06-22T03:23:40;22.20;;;17.35;;
33094;SDS011;19459;53.044;8.910;2023-06-22T03:26:06;27.75;;;18.90;;
33094;SDS011;19459;53.044;8.910;2023-06-22T03:28:33;21.83;;;18.25;;
33094;SDS011;19459;53.044;8.910;2023-06-22T03:30:59;26.80;;;18.52;;
33094;SDS011;19459;53.044;8.910;2023-06-22T03:33:25;24.38;;;18.00;;
33094;SDS011;19459;53.044;8.910;2023-06-22T03:35:51;25.35;;;19.58;;
33094;SDS011;19459;53.044;8.910;2023-06-22T03:38:17;22.33;;;18.17;;
33094;SDS011;19459;53.044;8.910;2023-06-22T03:40:43;26.67;;;18.98;;
33094;SDS011;19459;53.044;8.910;2023-06-22T03:43:08;24.27;;;18.90;;
33094;SDS011;19459;53.044;8.910;2023-06-22T03:45:34;28.05;;;19.85;;
33094;SDS011;19459;53.044;8.910;2023-06-22T03:48:00;25.90;;;20.38;;
33094;SDS011;19459;53.044;8.910;2023-06-22T03:50:26;27.38;;;21.23;;
33094;SDS011;19459;53.044;8.910;2023-06-22T03:52:52;25.58;;;19.48;;
33094;SDS011;19459;53.044;8.910;2023-06-22T03:55:21;23.05;;;18.92;;
33094;SDS011;19459;53.044;8.910;2023-06-22T03:57:47;24.40;;;19.45;;
33094;SDS011;19459;53.044;8.910;2023-06-22T04:00:13;23.20;;;18.70;;
33094;SDS011;19459;53.044;8.910;2023-06-22T04:02:41;25.02;;;20.30;;
33094;SDS011;19459;53.044;8.910;2023-06-22T04:05:08;27.27;;;21.00;;
33094;SDS011;19459;53.044;8.910;2023-06-22T04:07:34;25.10;;;20.48;;
33094;SDS011;19459;53.044;8.910;2023-06-22T04:10:02;27.33;;;20.42;;
33094;SDS011;19459;53.044;8.910;2023-06-22T04:12:29;31.90;;;23.02;;
33094;SDS011;19459;53.044;8.910;2023-06-22T04:14:55;30.42;;;22.55;;
33094;SDS011;19459;53.044;8.910;2023-06-22T04:17:21;29.38;;;21.38;;
33094;SDS011;19459;53.044;8.910;2023-06-22T04:19:49;30.50;;;22.17;;
33094;SDS011;19459;53.044;8.910;2023-06-22T04:22:16;29.95;;;22.60;;
33094;SDS011;19459;53.044;8.910;2023-06-22T04:24:42;29.38;;;23.45;;
33094;SDS011;19459;53.044;8.910;2023-06-22T04:27:07;32.13;;;24.88;;
33094;SDS011;19459;53.044;8.910;2023-06-22T04:29:33;32.10;;;24.90;;
33094;SDS011;19459;53.044;8.910;2023-06-22T04:31:59;33.55;;;27.05;;
33094;SDS011;19459;53.044;8.910;2023-06-22T04:34:35;33.10;;;25.52;;
33094;SDS011;19459;53.044;8.910;2023-06-22T04:37:12;34.17;;;25.60;;
33094;SDS011;19459;53.044;8.910;2023-06-22T04:39:40;37.25;;;28.25;;
33094;SDS011;19459;53.044;8.910;2023-06-22T04:42:07;38.22;;;26.10;;
33094;SDS011;19459;53.044;8.910;2023-06-22T04:44:33;35.00;;;26.73;;
33094;SDS011;19459;53.044;8.910;2023-06-22T04:47:02;35.72;;;26.95;;
33094;SDS011;19459;53.044;8.910;2023-06-22T04:49:29;36.25;;;26.45;;
33094;SDS011;19459;53.044;8.910;2023-06-22T04:51:59;35.85;;;26.58;;
33094;SDS011;19459;53.044;8.910;2023-06-22T04:54:27;42.00;;;27.73;;
33094;SDS011;19459;53.044;8.910;2023-06-22T04:56:53;38.35;;;27.15;;
33094;SDS011;19459;53.044;8.910;2023-06-22T04:59:25;40.70;;;28.20;;
33094;SDS011;19459;53.044;8.910;2023-06-22T05:01:55;36.22;;;26.65;;
33094;SDS011;19459;53.044;8.910;2023-06-22T05:04:21;37.65;;;26.73;;
33094;SDS011;19459;53.044;8.910;2023-06-22T05:06:51;42.85;;;27.88;;
33094;SDS011;19459;53.044;8.910;2023-06-22T05:09:17;39.33;;;28.40;;
33094;SDS011;19459;53.044;8.910;2023-06-22T05:11:43;39.22;;;28.08;;
33094;SDS011;19459;53.044;8.910;2023-06-22T05:14:10;39.90;;;27.08;;
33094;SDS011;19459;53.044;8.910;2023-06-22T05:16:36;37.45;;;27.75;;
33094;SDS011;19459;53.044;8.910;2023-06-22T05:19:02;34.53;;;25.10;;
33094;SDS011;19459;53.044;8.910;2023-06-22T05:21:29;34.28;;;26.10;;
33094;SDS011;19459;53.044;8.910;2023-06-22T05:23:56;35.45;;;24.85;;
33094;SDS011;19459;53.044;8.910;2023-06-22T05:26:27;33.10;;;24.65;;
33094;SDS011;19459;53.044;8.910;2023-06-22T05:28:58;31.33;;;21.38;;
33094;SDS011;19459;53.044;8.910;2023-06-22T05:31:26;31.10;;;22.45;;
33094;SDS011;19459;53.044;8.910;2023-06-22T05:33:53;31.52;;;22.77;;
33094;SDS011;19459;53.044;8.910;2023-06-22T05:36:19;30.10;;;21.88;;
33094;SDS011;19459;53.044;8.910;2023-06-22T05:38:46;26.92;;;19.58;;
33094;SDS011;19459;53.044;8.910;2023-06-22T05:41:12;26.45;;;17.48;;
33094;SDS011;19459;53.044;8.910;2023-06-22T05:43:39;26.63;;;17.48;;
33094;SDS011;19459;53.044;8.910;2023-06-22T05:46:05;29.45;;;19.30;;
33094;SDS011;19459;53.044;8.910;2023-06-22T05:48:31;26.05;;;18.63;;
33094;SDS011;19459;53.044;8.910;2023-06-22T05:50:57;25.85;;;18.15;;
33094;SDS011;19459;53.044;8.910;2023-06-22T05:53:24;23.77;;;18.48;;
33094;SDS011;19459;53.044;8.910;2023-06-22T05:55:49;22.42;;;18.08;;
33094;SDS011;19459;53.044;8.910;2023-06-22T05:58:15;25.02;;;17.17;;
33094;SDS011;19459;53.044;8.910;2023-06-22T06:00:41;26.88;;;18.98;;
33094;SDS011;19459;53.044;8.910;2023-06-22T06:03:08;33.67;;;19.30;;
33094;SDS011;19459;53.044;8.910;2023-06-22T06:05:35;24.88;;;17.08;;
33094;SDS011;19459;53.044;8.910;2023-06-22T06:08:03;28.65;;;18.80;;
33094;SDS011;19459;53.044;8.910;2023-06-22T06:10:31;23.20;;;17.20;;
33094;SDS011;19459;53.044;8.910;2023-06-22T06:12:58;22.42;;;17.05;;
33094;SDS011;19459;53.044;8.910;2023-06-22T06:15:26;22.65;;;16.92;;
33094;SDS011;19459;53.044;8.910;2023-06-22T06:17:53;24.15;;;19.08;;
33094;SDS011;19459;53.044;8.910;2023-06-22T06:20:23;22.77;;;16.10;;
33094;SDS011;19459;53.044;8.910;2023-06-22T06:22:51;21.58;;;16.20;;
33094;SDS011;19459;53.044;8.910;2023-06-22T06:25:17;21.05;;;16.67;;
33094;SDS011;19459;53.044;8.910;2023-06-22T06:27:49;21.77;;;16.55;;
33094;SDS011;19459;53.044;8.910;2023-06-22T06:30:16;23.02;;;16.52;;
33094;SDS011;19459;53.044;8.910;2023-06-22T06:32:44;28.63;;;16.58;;
33094;SDS011;19459;53.044;8.910;2023-06-22T06:35:11;24.65;;;16.30;;
33094;SDS011;19459;53.044;8.910;2023-06-22T06:37:39;26.90;;;16.38;;
33094;SDS011;19459;53.044;8.910;2023-06-22T06:40:07;23.67;;;16.75;;
33094;SDS011;19459;53.044;8.910;2023-06-22T06:42:53;22.35;;;15.80;;
33094;SDS011;19459;53.044;8.910;2023-06-22T06:45:21;24.42;;;16.05;;
33094;SDS011;19459;53.044;8.910;2023-06-22T06:47:48;20.10;;;15.65;;
33094;SDS011;19459;53.044;8.910;2023-06-22T06:50:15;23.35;;;15.77;;
33094;SDS011;19459;53.044;8.910;2023-06-22T06:52:41;21.83;;;15.13;;
33094;SDS011;19459;53.044;8.910;2023-06-22T06:55:08;17.52;;;13.88;;
33094;SDS011;19459;53.044;8.910;2023-06-22T06:57:39;20.63;;;14.27;;
33094;SDS011;19459;53.044;8.910;2023-06-22T07:00:07;18.58;;;13.45;;
33094;SDS011;19459;53.044;8.910;2023-06-22T07:02:40;16.75;;;12.65;;
33094;SDS011;19459;53.044;8.910;2023-06-22T07:05:08;19.48;;;11.65;;
33094;SDS011;19459;53.044;8.910;2023-06-22T07:07:34;14.60;;;11.05;;
33094;SDS011;19459;53.044;8.910;2023-06-22T07:10:00;14.10;;;10.35;;
33094;SDS011;19459;53.044;8.910;2023-06-22T07:12:26;14.63;;;10.88;;
33094;SDS011;19459;53.044;8.910;2023-06-22T07:14:52;10.95;;;8.95;;
33094;SDS011;19459;53.044;8.910;2023-06-22T07:17:19;15.50;;;9.77;;
33094;SDS011;19459;53.044;8.910;2023-06-22T07:19:45;13.77;;;9.68;;
33094;SDS011;19459;53.044;8.910;2023-06-22T07:22:11;13.93;;;9.10;;
33094;SDS011;19459;53.044;8.910;2023-06-22T07:24:36;15.77;;;10.07;;
33094;SDS011;19459;53.044;8.910;2023-06-22T07:27:02;13.75;;;8.98;;
33094;SDS011;19459;53.044;8.910;2023-06-22T07:29:30;14.18;;;10.63;;
33094;SDS011;19459;53.044;8.910;2023-06-22T07:31:56;11.82;;;7.40;;
33094;SDS011;19459;53.044;8.910;2023-06-22T07:34:22;11.95;;;8.02;;
33094;SDS011;19459;53.044;8.910;2023-06-22T07:36:48;11.40;;;8.50;;
33094;SDS011;19459;53.044;8.910;2023-06-22T07:39:14;10.38;;;7.28;;
33094;SDS011;19459;53.044;8.910;2023-06-22T07:41:40;9.18;;;6.60;;
33094;SDS011;19459;53.044;8.910;2023-06-22T07:44:06;14.15;;;8.43;;
33094;SDS011;19459;53.044;8.910;2023-06-22T07:46:32;11.10;;;8.00;;
33094;SDS011;19459;53.044;8.910;2023-06-22T07:48:58;14.18;;;6.63;;
33094;SDS011;19459;53.044;8.910;2023-06-22T07:51:24;7.25;;;5.78;;
33094;SDS011;19459;53.044;8.910;2023-06-22T07:53:51;10.30;;;6.60;;
33094;SDS011;19459;53.044;8.910;2023-06-22T07:56:16;13.52;;;7.35;;
33094;SDS011;19459;53.044;8.910;2023-06-22T07:58:46;10.35;;;7.00;;
33094;SDS011;19459;53.044;8.910;2023-06-22T08:01:12;9.60;;;7.45;;
33094;SDS011;19459;53.044;8.910;2023-06-22T08:03:39;10.80;;;7.15;;
33094;SDS011;19459;53.044;8.910;2023-06-22T08:06:05;18.67;;;7.10;;
33094;SDS011;19459;53.044;8.910;2023-06-22T08:08:34;9.90;;;7.72;;
33094;SDS011;19459;53.044;8.910;2023-06-22T08:11:01;10.07;;;6.55;;
33094;SDS011;19459;53.044;8.910;2023-06-22T08:13:26;13.23;;;7.95;;
33094;SDS011;19459;53.044;8.910;2023-06-22T08:15:52;11.35;;;7.38;;
33094;SDS011;19459;53.044;8.910;2023-06-22T08:18:18;20.30;;;7.07;;
33094;SDS011;19459;53.044;8.910;2023-06-22T08:20:44;8.02;;;6.00;;
33094;SDS011;19459;53.044;8.910;2023-06-22T08:23:10;12.43;;;6.53;;
33094;SDS011;19459;53.044;8.910;2023-06-22T08:25:36;11.55;;;5.82;;
33094;SDS011;19459;53.044;8.910;2023-06-22T08:28:02;10.70;;;5.97;;
33094;SDS011;19459;53.044;8.910;2023-06-22T08:30:29;8.10;;;6.43;;
33094;SDS011;19459;53.044;8.910;2023-06-22T08:32:55;8.48;;;5.47;;
33094;SDS011;19459;53.044;8.910;2023-06-22T08:35:23;7.18;;;6.30;;
33094;SDS011;19459;53.044;8.910;2023-06-22T08:37:52;8.15;;;6.38;;
33094;SDS011;19459;53.044;8.910;2023-06-22T08:40:19;16.90;;;6.95;;
33094;SDS011;19459;53.044;8.910;2023-06-22T08:42:46;11.48;;;6.47;;
33094;SDS011;19459;53.044;8.910;2023-06-22T08:45:12;20.77;;;7.35;;
33094;SDS011;19459;53.044;8.910;2023-06-22T08:47:39;10.32;;;7.53;;
33094;SDS011;19459;53.044;8.910;2023-06-22T08:50:09;9.98;;;6.78;;
33094;SDS011;19459;53.044;8.910;2023-06-22T08:52:36;10.20;;;7.15;;
33094;SDS011;19459;53.044;8.910;2023-06-22T08:55:03;11.15;;;6.32;;
33094;SDS011;19459;53.044;8.910;2023-06-22T08:57:29;7.18;;;5.75;;
33094;SDS011;19459;53.044;8.910;2023-06-22T08:59:55;8.25;;;6.80;;
33094;SDS011;19459;53.044;8.910;2023-06-22T09:02:27;7.57;;;6.07;;
33094;SDS011;19459;53.044;8.910;2023-06-22T09:04:56;10.52;;;6.72;;
33094;SDS011;19459;53.044;8.910;2023-06-22T09:07:23;12.15;;;7.93;;
33094;SDS011;19459;53.044;8.910;2023-06-22T09:09:50;9.85;;;7.32;;
33094;SDS011;19459;53.044;8.910;2023-06-22T09:12:17;9.10;;;8.00;;
33094;SDS011;19459;53.044;8.910;2023-06-22T09:14:50;11.88;;;8.05;;
33094;SDS011;19459;53.044;8.910;2023-06-22T09:17:16;13.02;;;8.15;;
33094;SDS011;19459;53.044;8.910;2023-06-22T09:19:42;9.45;;;5.63;;
33094;SDS011;19459;53.044;8.910;2023-06-22T09:22:08;7.95;;;6.43;;
33094;SDS011;19459;53.044;8.910;2023-06-22T09:24:34;7.80;;;5.97;;
33094;SDS011;19459;53.044;8.910;2023-06-22T09:27:00;9.68;;;5.70;;
33094;SDS011;19459;53.044;8.910;2023-06-22T09:29:26;7.70;;;5.15;;
33094;SDS011;19459;53.044;8.910;2023-06-22T09:31:51;6.60;;;5.22;;
33094;SDS011;19459;53.044;8.910;2023-06-22T09:34:20;8.57;;;5.30;;
33094;SDS011;19459;53.044;8.910;2023-06-22T09:36:46;7.35;;;5.80;;
33094;SDS011;19459;53.044;8.910;2023-06-22T09:39:12;8.10;;;6.80;;
33094;SDS011;19459;53.044;8.910;2023-06-22T09:41:38;8.15;;;5.18;;
33094;SDS011;19459;53.044;8.910;2023-06-22T09:44:04;8.88;;;4.85;;
33094;SDS011;19459;53.044;8.910;2023-06-22T09:46:30;11.68;;;5.35;;
33094;SDS011;19459;53.044;8.910;2023-06-22T09:48:55;6.75;;;4.85;;
33094;SDS011;19459;53.044;8.910;2023-06-22T09:51:22;7.75;;;5.07;;
33094;SDS011;19459;53.044;8.910;2023-06-22T09:53:49;6.97;;;5.05;;
33094;SDS011;19459;53.044;8.910;2023-06-22T09:56:15;5.60;;;4.28;;
33094;SDS011;19459;53.044;8.910;2023-06-22T09:58:42;7.13;;;5.32;;
33094;SDS011;19459;53.044;8.910;2023-06-22T10:01:09;6.63;;;4.95;;
33094;SDS011;19459;53.044;8.910;2023-06-22T10:03:35;5.55;;;5.00;;
33094;SDS011;19459;53.044;8.910;2023-06-22T10:06:02;7.10;;;4.97;;
33094;SDS011;19459;53.044;8.910;2023-06-22T10:08:28;7.78;;;4.55;;
33094;SDS011;19459;53.044;8.910;2023-06-22T10:10:54;5.07;;;4.15;;
33094;SDS011;19459;53.044;8.910;2023-06-22T10:13:20;6.32;;;4.47;;
33094;SDS011;19459;53.044;8.910;2023-06-22T10:15:46;9.43;;;5.80;;
33094;SDS011;19459;53.044;8.910;2023-06-22T10:18:16;8.70;;;4.68;;
33094;SDS011;19459;53.044;8.910;2023-06-22T10:20:43;5.75;;;4.40;;
33094;SDS011;19459;53.044;8.910;2023-06-22T10:23:09;5.03;;;4.22;;
33094;SDS011;19459;53.044;8.910;2023-06-22T10:25:35;10.00;;;4.80;;
33094;SDS011;19459;53.044;8.910;2023-06-22T10:28:00;9.70;;;4.93;;
33094;SDS011;19459;53.044;8.910;2023-06-22T10:30:26;5.13;;;4.28;;
33094;SDS011;19459;53.044;8.910;2023-06-22T10:32:53;7.88;;;4.75;;
33094;SDS011;19459;53.044;8.910;2023-06-22T10:35:19;5.65;;;4.97;;
33094;SDS011;19459;53.044;8.910;2023-06-22T10:37:46;5.78;;;4.75;;
33094;SDS011;19459;53.044;8.910;2023-06-22T10:40:16;5.32;;;4.53;;
33094;SDS011;19459;53.044;8.910;2023-06-22T10:42:43;5.07;;;4.45;;
33094;SDS011;19459;53.044;8.910;2023-06-22T10:45:09;7.45;;;4.75;;
33094;SDS011;19459;53.044;8.910;2023-06-22T10:47:36;10.88;;;4.72;;
33094;SDS011;19459;53.044;8.910;2023-06-22T10:50:02;6.68;;;4.97;;
33094;SDS011;19459;53.044;8.910;2023-06-22T10:52:29;6.40;;;4.53;;
33094;SDS011;19459;53.044;8.910;2023-06-22T10:54:55;4.97;;;4.45;;
33094;SDS011;19459;53.044;8.910;2023-06-22T10:57:21;6.85;;;4.85;;
33094;SDS011;19459;53.044;8.910;2023-06-22T10:59:47;6.03;;;4.60;;
33094;SDS011;19459;53.044;8.910;2023-06-22T11:02:13;5.88;;;4.18;;
33094;SDS011;19459;53.044;8.910;2023-06-22T11:04:39;6.53;;;4.90;;
33094;SDS011;19459;53.044;8.910;2023-06-22T11:07:05;7.03;;;5.15;;
33094;SDS011;19459;53.044;8.910;2023-06-22T11:09:31;11.70;;;5.82;;
33094;SDS011;19459;53.044;8.910;2023-06-22T11:11:56;9.02;;;5.72;;
33094;SDS011;19459;53.044;8.910;2023-06-22T11:14:24;5.82;;;4.45;;
33094;SDS011;19459;53.044;8.910;2023-06-22T11:16:50;5.97;;;4.25;;
33094;SDS011;19459;53.044;8.910;2023-06-22T11:19:16;7.50;;;5.20;;
33094;SDS011;19459;53.044;8.910;2023-06-22T11:21:43;9.07;;;5.00;;
33094;SDS011;19459;53.044;8.910;2023-06-22T11:24:08;8.73;;;4.50;;
33094;SDS011;19459;53.044;8.910;2023-06-22T11:26:34;7.75;;;5.00;;
33094;SDS011;19459;53.044;8.910;2023-06-22T11:29:00;5.80;;;5.20;;
33094;SDS011;19459;53.044;8.910;2023-06-22T11:31:30;5.05;;;4.55;;
33094;SDS011;19459;53.044;8.910;2023-06-22T11:33:57;9.38;;;5.22;;
33094;SDS011;19459;53.044;8.910;2023-06-22T11:36:23;7.25;;;5.10;;
33094;SDS011;19459;53.044;8.910;2023-06-22T11:38:48;7.10;;;4.60;;
33094;SDS011;19459;53.044;8.910;2023-06-22T11:41:14;5.47;;;4.88;;
33094;SDS011;19459;53.044;8.910;2023-06-22T11:43:40;5.65;;;4.28;;
33094;SDS011;19459;53.044;8.910;2023-06-22T11:46:06;6.10;;;4.93;;
33094;SDS011;19459;53.044;8.910;2023-06-22T11:48:32;6.07;;;5.35;;
33094;SDS011;19459;53.044;8.910;2023-06-22T11:50:58;5.65;;;5.05;;
33094;SDS011;19459;53.044;8.910;2023-06-22T11:53:24;5.72;;;4.60;;
33094;SDS011;19459;53.044;8.910;2023-06-22T11:55:51;5.18;;;4.68;;
33094;SDS011;19459;53.044;8.910;2023-06-22T11:58:19;7.30;;;5.10;;
33094;SDS011;19459;53.044;8.910;2023-06-22T12:00:44;5.97;;;5.38;;
33094;SDS011;19459;53.044;8.910;2023-06-22T12:03:10;5.32;;;4.53;;
33094;SDS011;19459;53.044;8.910;2023-06-22T12:05:37;4.88;;;4.30;;
33094;SDS011;19459;53.044;8.910;2023-06-22T12:08:03;7.25;;;5.40;;
33094;SDS011;19459;53.044;8.910;2023-06-22T12:10:29;9.52;;;4.68;;
33094;SDS011;19459;53.044;8.910;2023-06-22T12:12:55;6.18;;;4.75;;
33094;SDS011;19459;53.044;8.910;2023-06-22T12:15:22;6.25;;;4.65;;
33094;SDS011;19459;53.044;8.910;2023-06-22T12:17:48;7.10;;;4.97;;
33094;SDS011;19459;53.044;8.910;2023-06-22T12:20:14;7.13;;;5.18;;
33094;SDS011;19459;53.044;8.910;2023-06-22T12:22:40;5.63;;;4.63;;
33094;SDS011;19459;53.044;8.910;2023-06-22T12:25:07;4.78;;;4.18;;
33094;SDS011;19459;53.044;8.910;2023-06-22T12:27:34;5.47;;;4.72;;
33094;SDS011;19459;53.044;8.910;2023-06-22T12:30:01;5.43;;;4.93;;
33094;SDS011;19459;53.044;8.910;2023-06-22T12:32:28;4.72;;;4.32;;
33094;SDS011;19459;53.044;8.910;2023-06-22T12:34:54;7.80;;;5.68;;
33094;SDS011;19459;53.044;8.910;2023-06-22T12:37:20;8.38;;;5.45;;
33094;SDS011;19459;53.044;8.910;2023-06-22T12:39:46;5.03;;;4.60;;
33094;SDS011;19459;53.044;8.910;2023-06-22T12:42:12;6.13;;;4.45;;
33094;SDS011;19459;53.044;8.910;2023-06-22T12:44:38;6.57;;;5.47;;
33094;SDS011;19459;53.044;8.910;2023-06-22T12:47:07;8.00;;;5.88;;
33094;SDS011;19459;53.044;8.910;2023-06-22T12:49:34;7.15;;;5.45;;
33094;SDS011;19459;53.044;8.910;2023-06-22T12:52:02;8.55;;;5.60;;
33094;SDS011;19459;53.044;8.910;2023-06-22T12:54:29;9.32;;;5.13;;
33094;SDS011;19459;53.044;8.910;2023-06-22T12:56:55;6.78;;;5.32;;
33094;SDS011;19459;53.044;8.910;2023-06-22T12:59:21;5.50;;;4.95;;
33094;SDS011;19459;53.044;8.910;2023-06-22T13:01:47;9.05;;;5.93;;
33094;SDS011;19459;53.044;8.910;2023-06-22T13:04:13;6.50;;;5.88;;
33094;SDS011;19459;53.044;8.910;2023-06-22T13:06:42;6.90;;;5.50;;
33094;SDS011;19459;53.044;8.910;2023-06-22T13:09:12;5.88;;;5.28;;
33094;SDS011;19459;53.044;8.910;2023-06-22T13:11:43;6.20;;;5.60;;
33094;SDS011;19459;53.044;8.910;2023-06-22T13:14:09;9.30;;;6.55;;
33094;SDS011;19459;53.044;8.910;2023-06-22T13:16:34;6.15;;;5.55;;
33094;SDS011;19459;53.044;8.910;2023-06-22T13:19:00;6.68;;;5.78;;
33094;SDS011;19459;53.044;8.910;2023-06-22T13:21:26;9.43;;;6.68;;
33094;SDS011;19459;53.044;8.910;2023-06-22T13:23:52;6.00;;;5.38;;
33094;SDS011;19459;53.044;8.910;2023-06-22T13:26:18;7.47;;;6.65;;
33094;SDS011;19459;53.044;8.910;2023-06-22T13:28:43;7.68;;;6.13;;
33094;SDS011;19459;53.044;8.910;2023-06-22T13:31:09;10.05;;;6.20;;
33094;SDS011;19459;53.044;8.910;2023-06-22T13:33:35;6.68;;;5.95;;
33094;SDS011;19459;53.044;8.910;2023-06-22T13:36:03;10.68;;;6.10;;
33094;SDS011;19459;53.044;8.910;2023-06-22T13:38:31;7.88;;;7.03;;
33094;SDS011;19459;53.044;8.910;2023-06-22T13:40:57;7.45;;;6.65;;
33094;SDS011;19459;53.044;8.910;2023-06-22T13:43:24;8.57;;;6.70;;
33094;SDS011;19459;53.044;8.910;2023-06-22T13:45:52;8.82;;;6.80;;
33094;SDS011;19459;53.044;8.910;2023-06-22T13:48:17;10.55;;;6.60;;
33094;SDS011;19459;53.044;8.910;2023-06-22T13:50:43;6.97;;;6.13;;
33094;SDS011;19459;53.044;8.910;2023-06-22T13:53:09;8.02;;;6.63;;
33094;SDS011;19459;53.044;8.910;2023-06-22T13:55:35;7.45;;;6.25;;
33094;SDS011;19459;53.044;8.910;2023-06-22T13:58:01;11.82;;;6.82;;
33094;SDS011;19459;53.044;8.910;2023-06-22T14:00:26;11.68;;;6.82;;
33094;SDS011;19459;53.044;8.910;2023-06-22T14:02:53;7.28;;;6.35;;
33094;SDS011;19459;53.044;8.910;2023-06-22T14:05:19;10.32;;;7.43;;
33094;SDS011;19459;53.044;8.910;2023-06-22T14:07:45;9.02;;;6.38;;
33094;SDS011;19459;53.044;8.910;2023-06-22T14:10:11;6.65;;;5.95;;
33094;SDS011;19459;53.044;8.910;2023-06-22T14:12:37;6.88;;;6.18;;
33094;SDS011;19459;53.044;8.910;2023-06-22T14:15:03;7.40;;;6.70;;
33094;SDS011;19459;53.044;8.910;2023-06-22T14:17:29;7.13;;;6.30;;
33094;SDS011;19459;53.044;8.910;2023-06-22T14:19:55;9.52;;;7.40;;
33094;SDS011;19459;53.044;8.910;2023-06-22T14:22:21;8.43;;;6.40;;
33094;SDS011;19459;53.044;8.910;2023-06-22T14:24:47;8.15;;;7.22;;
33094;SDS011;19459;53.044;8.910;2023-06-22T14:27:13;8.18;;;6.25;;
33094;SDS011;19459;53.044;8.910;2023-06-22T14:29:40;13.25;;;6.95;;
33094;SDS011;19459;53.044;8.910;2023-06-22T14:32:06;8.32;;;7.10;;
33094;SDS011;19459;53.044;8.910;2023-06-22T14:34:32;10.00;;;6.82;;
33094;SDS011;19459;53.044;8.910;2023-06-22T14:37:01;7.75;;;6.97;;
33094;SDS011;19459;53.044;8.910;2023-06-22T14:39:27;8.13;;;7.15;;
33094;SDS011;19459;53.044;8.910;2023-06-22T14:41:53;8.48;;;7.22;;